METAR Data
IDs: Format: Raw Decoded Include TAF

Data at: 2305 UTC 02 Oct 2022

METAR for:KLBE (Latrobe/Palmer Rgnl, PA, US)
Text:KLBE 022247Z 00000KT 15SM CLR 14/12 A3019
Temperature: 14.0°C ( 57°F)
Dewpoint: 12.0°C ( 54°F) [RH = 88%]
Pressure (altimeter):30.19 inches Hg (1022.4 mb)
Winds:calm
Visibility: 15 sm ( 24 km)
Ceiling:at least 12,000 feet AGL
Clouds:sky clear below 12,000 feet AGL